Time;durP1;ratioP1;P1;durP2;ratioP2;P2;SDS_P1;SDS_P2;PMS_P1;PMS_P2;Temp;Humidity;BMP_temperature;BMP_pressure;BME280_temperature;BME280_humidity;BME280_pressure;Samples;Min_cycle;Max_cycle;Signal;HPM_P1;HPM_P2
2021/12/13 00:01:01;;;;;;;;;;;1.50;99.90;;;;;;6107787;23;19924;-90
2021/12/13 00:03:33;;;;;;;;;;;1.50;99.90;;;;;;6071888;23;20542;-90
2021/12/13 00:06:08;;;;;;;;;;;1.50;99.90;;;;;;6096608;23;19917;-89
2021/12/13 00:08:38;;;;;;;;;;;1.50;99.90;;;;;;6096232;23;19921;-88
2021/12/13 00:11:26;;;;;;;;;;;1.40;99.90;;;;;;6071822;23;19967;-89
2021/12/13 00:14:10;;;;;;;;;;;1.50;99.90;;;;;;6103475;23;19917;-89
2021/12/13 00:16:41;;;;;;;;;;;1.70;99.90;;;;;;6060932;23;20245;-89
2021/12/13 00:19:24;;;;;;;;;;;1.90;99.90;;;;;;6076122;23;19928;-89
2021/12/13 00:22:12;;;;;;;;;;;2.00;99.90;;;;;;6099447;23;19917;-89
2021/12/13 00:25:27;;;;;;;;;;;2.20;99.90;;;;;;6061140;23;19928;-90
2021/12/13 00:28:17;;;;;;;;;;;2.10;99.90;;;;;;6061872;23;20325;-89
2021/12/13 00:31:15;;;;;;;;;;;2.20;99.90;;;;;;6054737;23;19921;-89
2021/12/13 00:33:52;;;;;;;;;;;2.10;99.90;;;;;;6075562;23;20120;-89
2021/12/13 00:36:39;;;;;;;;;;;2.20;99.90;;;;;;6075119;23;19917;-83
2021/12/13 00:39:37;;;;;;;;;;;2.10;99.90;;;;;;6129576;23;19928;-89
2021/12/13 00:42:18;;;;;;;;;;;2.10;99.90;;;;;;6076194;23;19932;-89
2021/12/13 00:45:19;;;;;;;;;;;2.10;99.90;;;;;;6076951;23;19928;-88
2021/12/13 00:48:34;;;;;;;;;;;2.10;99.90;;;;;;6068140;23;19924;-89
2021/12/13 00:52:16;;;;;;;;;;;2.10;99.90;;;;;;6082678;23;19921;-89
2021/12/13 00:56:00;;;;;;;;;;;2.00;99.90;;;;;;6096322;23;20339;-89
2021/12/13 00:59:09;;;;;;;;;;;;;;;;;;;;;
2021/12/13 01:03:04;;;;;;;;;;;2.00;99.90;;;;;;6004759;23;20259;-88
2021/12/13 01:06:27;;;;;;;;;;;;;;;;;;;;;
2021/12/13 01:16:21;;;;;;;;;;;;;;;;;;;;;
2021/12/13 01:43:22;;;;;;;;;;;2.30;99.90;;;;;;5745858;24;19921;-88
2021/12/13 02:31:49;;;;;;;;;;;2.50;99.90;;;;;;6133706;23;20331;-85
2021/12/13 02:34:43;;;;;;;;;;;2.50;99.90;;;;;;6112847;23;19921;-89
2021/12/13 02:48:45;;;;;;;;;;;2.60;99.90;;;;;;6134190;23;20249;-85
2021/12/13 02:51:17;;;;;;;;;;;2.70;99.90;;;;;;6081390;23;19921;-84
2021/12/13 02:53:52;;;;;;;;;;;2.60;99.90;;;;;;6081796;23;19932;-84
2021/12/13 02:56:22;;;;;;;;;;;2.50;99.90;;;;;;6129804;23;19928;-85
2021/12/13 02:59:20;;;;;;;;;;;2.50;99.90;;;;;;6136062;23;20446;-84
2021/12/13 03:02:29;;;;;;;;;;;2.60;99.90;;;;;;6138116;23;20325;-84
2021/12/13 03:04:59;;;;;;;;;;;2.60;99.90;;;;;;6139509;23;19925;-84
2021/12/13 03:07:31;;;;;;;;;;;2.60;99.90;;;;;;6098514;23;19925;-84
2021/12/13 03:10:04;;;;;;;;;;;2.60;99.90;;;;;;6134631;23;19928;-85
2021/12/13 03:12:32;;;;;;;;;;;2.70;99.90;;;;;;6134413;23;19921;-84
2021/12/13 03:15:03;;;;;;;;;;;2.70;99.90;;;;;;6074645;23;19921;-84
2021/12/13 03:17:32;;;;;;;;;;;2.60;99.90;;;;;;6099778;23;19928;-83
2021/12/13 03:20:02;;;;;;;;;;;2.70;99.90;;;;;;6098923;23;20324;-84
2021/12/13 03:22:56;;;;;;;;;;;2.70;99.90;;;;;;6107109;23;19929;-84
2021/12/13 03:25:42;;;;;;;;;;;2.70;99.90;;;;;;6123955;23;19928;-84
2021/12/13 03:28:13;;;;;;;;;;;2.70;99.90;;;;;;6074141;23;19944;-84
2021/12/13 03:30:50;;;;;;;;;;;2.70;99.90;;;;;;6129927;23;19925;-84
2021/12/13 03:33:20;;;;;;;;;;;2.70;99.90;;;;;;6109293;23;19948;-84
2021/12/13 03:35:56;;;;;;;;;;;2.70;99.90;;;;;;6101208;23;20248;-84
2021/12/13 03:38:27;;;;;;;;;;;2.70;99.90;;;;;;6106806;23;19928;-85
2021/12/13 03:41:00;;;;;;;;;;;2.70;99.90;;;;;;6123557;23;19928;-84
2021/12/13 03:43:37;;;;;;;;;;;2.80;99.90;;;;;;6127963;23;19929;-84
2021/12/13 03:46:07;;;;;;;;;;;2.80;99.90;;;;;;6132604;23;19931;-84
2021/12/13 03:48:38;;;;;;;;;;;2.70;99.90;;;;;;6074792;23;19925;-84
2021/12/13 03:51:08;;;;;;;;;;;2.70;99.90;;;;;;6074904;23;19928;-85
2021/12/13 03:53:36;;;;;;;;;;;2.80;99.90;;;;;;6134832;23;19921;-84
2021/12/13 03:56:06;;;;;;;;;;;2.80;99.90;;;;;;6125645;23;19921;-84
2021/12/13 03:58:40;;;;;;;;;;;2.70;99.90;;;;;;6081583;23;20454;-84
2021/12/13 04:01:09;;;;;;;;;;;2.70;99.90;;;;;;6109370;23;19944;-84
2021/12/13 04:03:38;;;;;;;;;;;2.80;99.90;;;;;;6126462;23;19932;-84
2021/12/13 04:06:06;;;;;;;;;;;2.80;99.90;;;;;;6050764;23;19947;-84
2021/12/13 04:08:33;;;;;;;;;;;2.80;99.90;;;;;;6051093;23;20248;-84
2021/12/13 04:11:04;;;;;;;;;;;2.80;99.90;;;;;;6097274;23;19920;-84
2021/12/13 04:13:36;;;;;;;;;;;2.80;99.90;;;;;;6131906;23;19968;-84
2021/12/13 04:16:30;;;;;;;;;;;2.80;99.90;;;;;;6099474;23;20333;-84
2021/12/13 04:19:19;;;;;;;;;;;2.80;99.90;;;;;;6104863;23;19921;-84
2021/12/13 04:21:58;;;;;;;;;;;2.80;99.90;;;;;;6108391;23;19928;-83
2021/12/13 04:24:31;;;;;;;;;;;2.80;99.90;;;;;;6098749;23;20256;-84
2021/12/13 04:27:01;;;;;;;;;;;2.90;99.90;;;;;;6122264;23;19928;-84
2021/12/13 04:29:31;;;;;;;;;;;2.80;99.90;;;;;;6051531;23;20380;-84
2021/12/13 04:32:09;;;;;;;;;;;2.70;99.90;;;;;;6097738;23;20340;-84
2021/12/13 04:34:39;;;;;;;;;;;2.70;99.90;;;;;;6131453;23;19928;-84
2021/12/13 04:37:14;;;;;;;;;;;2.80;99.90;;;;;;6134742;23;20324;-84
2021/12/13 04:39:43;;;;;;;;;;;2.80;99.90;;;;;;6098200;23;19921;-84
2021/12/13 04:42:19;;;;;;;;;;;2.80;99.90;;;;;;6132282;23;19921;-84
2021/12/13 04:44:52;;;;;;;;;;;2.80;99.90;;;;;;6132870;23;20315;-84
2021/12/13 04:47:23;;;;;;;;;;;2.80;99.90;;;;;;6098336;23;20241;-85
2021/12/13 04:49:57;;;;;;;;;;;2.80;99.90;;;;;;6125788;23;19928;-84
2021/12/13 04:52:24;;;;;;;;;;;2.80;99.90;;;;;;6123571;23;20249;-84
2021/12/13 04:54:53;;;;;;;;;;;2.80;99.90;;;;;;6098059;23;19925;-84
2021/12/13 04:57:22;;;;;;;;;;;2.90;99.90;;;;;;6132415;23;19928;-83
2021/12/13 04:59:52;;;;;;;;;;;2.90;99.90;;;;;;6101098;23;19932;-84
2021/12/13 05:02:20;;;;;;;;;;;2.90;99.90;;;;;;6132325;23;19925;-84
2021/12/13 05:04:50;;;;;;;;;;;2.90;99.90;;;;;;6074816;23;19921;-84
2021/12/13 05:07:18;;;;;;;;;;;3.00;99.90;;;;;;6127100;23;19929;-84
2021/12/13 05:09:46;;;;;;;;;;;2.90;99.90;;;;;;6098257;23;20629;-83
2021/12/13 05:12:15;;;;;;;;;;;2.90;99.90;;;;;;6098377;23;20339;-84
2021/12/13 05:14:48;;;;;;;;;;;2.90;99.90;;;;;;6081122;23;20257;-83
2021/12/13 05:17:25;;;;;;;;;;;2.90;99.90;;;;;;6134325;23;19925;-83
2021/12/13 05:19:57;;;;;;;;;;;2.90;99.90;;;;;;6071371;23;19932;-83
2021/12/13 05:22:28;;;;;;;;;;;2.90;99.90;;;;;;6097648;23;19928;-83
2021/12/13 05:24:58;;;;;;;;;;;3.00;99.90;;;;;;6084220;23;19925;-83
2021/12/13 05:27:25;;;;;;;;;;;2.90;99.90;;;;;;6125621;23;19931;-83
2021/12/13 05:30:03;;;;;;;;;;;2.90;99.90;;;;;;6097939;23;20256;-84
2021/12/13 05:32:32;;;;;;;;;;;2.90;99.90;;;;;;6122670;23;19928;-83
2021/12/13 05:35:20;;;;;;;;;;;2.90;99.90;;;;;;6129289;23;19928;-84
2021/12/13 05:37:49;;;;;;;;;;;2.90;99.90;;;;;;6073822;23;19925;-83
2021/12/13 05:40:37;;;;;;;;;;;2.90;99.90;;;;;;6123510;23;20002;-83
2021/12/13 05:43:14;;;;;;;;;;;3.00;99.90;;;;;;6122319;23;19925;-83
2021/12/13 05:45:44;;;;;;;;;;;3.00;99.90;;;;;;6133899;23;20329;-83
2021/12/13 05:48:13;;;;;;;;;;;3.00;99.90;;;;;;6097433;23;19925;-83
2021/12/13 05:50:54;;;;;;;;;;;3.00;99.90;;;;;;6129707;23;19948;-83
2021/12/13 05:53:22;;;;;;;;;;;3.00;99.90;;;;;;6131464;23;20338;-80
2021/12/13 05:56:08;;;;;;;;;;;3.00;99.90;;;;;;6124939;23;19921;-82
2021/12/13 05:58:52;;;;;;;;;;;3.00;99.90;;;;;;6129831;23;19928;-82
2021/12/13 06:01:28;;;;;;;;;;;3.00;99.90;;;;;;6134665;23;20383;-87
2021/12/13 06:04:24;;;;;;;;;;;3.00;99.90;;;;;;6074327;23;19940;-90
2021/12/13 06:06:53;;;;;;;;;;;3.00;99.90;;;;;;6100407;23;19931;-90
2021/12/13 06:09:47;;;;;;;;;;;3.10;99.90;;;;;;6135284;23;19962;-90
2021/12/13 06:12:33;;;;;;;;;;;3.10;99.90;;;;;;6123693;23;19924;-90
2021/12/13 06:15:17;;;;;;;;;;;3.00;99.90;;;;;;6123034;23;19921;-89
2021/12/13 06:18:00;;;;;;;;;;;3.00;99.90;;;;;;6133697;23;19921;-89
2021/12/13 06:20:54;;;;;;;;;;;3.10;99.90;;;;;;6058310;23;20236;-87
2021/12/13 06:23:25;;;;;;;;;;;3.00;99.90;;;;;;6102247;23;19925;-86
2021/12/13 06:25:55;;;;;;;;;;;3.10;99.90;;;;;;6098191;23;19928;-89
2021/12/13 06:28:44;;;;;;;;;;;3.00;99.90;;;;;;6083186;23;20245;-92
2021/12/13 06:34:48;;;;;;;;;;;3.10;99.90;;;;;;6131454;23;19921;-83
2021/12/13 06:38:23;;;;;;;;;;;3.00;99.90;;;;;;6059054;23;19920;-88
2021/12/13 06:41:58;;;;;;;;;;;3.10;99.90;;;;;;6061768;23;19925;-89
2021/12/13 06:45:09;;;;;;;;;;;3.00;99.90;;;;;;6091081;23;19921;-90
2021/12/13 06:48:07;;;;;;;;;;;3.00;99.90;;;;;;6090785;23;20222;-90
2021/12/13 07:00:51;;;;;;;;;;;3.10;99.90;;;;;;6011624;23;19998;-89
2021/12/13 07:04:22;;;;;;;;;;;3.00;99.90;;;;;;5928700;24;20351;-89
2021/12/13 07:07:39;;;;;;;;;;;3.10;99.90;;;;;;5927920;23;19922;-88
2021/12/13 07:10:17;;;;;;;;;;;3.00;99.90;;;;;;6001579;23;19922;-89
2021/12/13 07:12:59;;;;;;;;;;;3.10;99.90;;;;;;6012957;23;19927;-84
2021/12/13 07:15:33;;;;;;;;;;;3.10;99.90;;;;;;6023834;23;19933;-87
2021/12/13 07:18:06;;;;;;;;;;;3.10;99.90;;;;;;6063920;23;20277;-88
2021/12/13 07:20:40;;;;;;;;;;;3.10;99.90;;;;;;6068460;23;19929;-89
2021/12/13 07:23:14;;;;;;;;;;;3.10;99.90;;;;;;6055810;23;19925;-89
2021/12/13 07:25:45;;;;;;;;;;;3.10;99.90;;;;;;6098178;23;19929;-89
2021/12/13 07:28:43;;;;;;;;;;;3.10;99.90;;;;;;6079575;23;19928;-89
2021/12/13 07:32:31;;;;;;;;;;;3.20;99.90;;;;;;5965428;23;19926;-89
2021/12/13 07:34:59;;;;;;;;;;;3.20;99.90;;;;;;5983245;23;19923;-89
2021/12/13 07:37:53;;;;;;;;;;;3.20;99.90;;;;;;6007383;23;19922;-88
2021/12/13 07:40:42;;;;;;;;;;;3.20;99.90;;;;;;5993017;23;20346;-89
2021/12/13 07:43:25;;;;;;;;;;;3.10;99.90;;;;;;6044707;23;19925;-89
2021/12/13 07:45:54;;;;;;;;;;;3.10;99.90;;;;;;6037771;23;19929;-89
2021/12/13 07:48:25;;;;;;;;;;;3.10;99.90;;;;;;6070710;23;19921;-89
2021/12/13 07:51:00;;;;;;;;;;;3.00;99.90;;;;;;6129642;23;19929;-88
2021/12/13 07:53:37;;;;;;;;;;;3.00;99.90;;;;;;6109015;23;19925;-89
2021/12/13 07:56:10;;;;;;;;;;;3.00;99.90;;;;;;6098046;23;19928;-88
2021/12/13 07:58:43;;;;;;;;;;;3.10;99.90;;;;;;6073745;23;19932;-89
2021/12/13 08:01:24;;;;;;;;;;;3.20;99.90;;;;;;6076128;23;19928;-89
2021/12/13 08:03:58;;;;;;;;;;;3.20;99.90;;;;;;6097279;23;19921;-87
2021/12/13 08:06:28;;;;;;;;;;;3.20;99.90;;;;;;6097770;23;19932;-87
2021/12/13 08:08:57;;;;;;;;;;;3.20;99.90;;;;;;6098282;23;20632;-87
2021/12/13 08:11:37;;;;;;;;;;;3.20;99.90;;;;;;6073440;23;19925;-87
2021/12/13 08:14:05;;;;;;;;;;;3.30;99.90;;;;;;6096871;23;20341;-87
2021/12/13 08:16:39;;;;;;;;;;;3.30;99.90;;;;;;6074475;23;19921;-87
2021/12/13 08:19:14;;;;;;;;;;;3.30;99.90;;;;;;6083415;23;19925;-88
2021/12/13 08:22:21;;;;;;;;;;;3.30;99.90;;;;;;6133714;23;19921;-87
2021/12/13 08:30:56;;;;;;;;;;;3.30;99.90;;;;;;5975178;23;19926;-87
2021/12/13 08:33:46;;;;;;;;;;;3.20;99.90;;;;;;5960731;23;19926;-87
2021/12/13 08:36:26;;;;;;;;;;;3.30;99.90;;;;;;6005698;23;19929;-87
2021/12/13 08:39:15;;;;;;;;;;;3.20;99.90;;;;;;6005461;23;19975;-88
2021/12/13 08:41:44;;;;;;;;;;;3.40;99.90;;;;;;6072811;23;19926;-82
2021/12/13 08:44:12;;;;;;;;;;;3.30;99.90;;;;;;6072713;23;19925;-82
2021/12/13 08:46:41;;;;;;;;;;;3.30;99.90;;;;;;6101997;23;19936;-82
2021/12/13 08:49:14;;;;;;;;;;;3.40;99.90;;;;;;6103816;23;19928;-82
2021/12/13 08:51:54;;;;;;;;;;;3.40;99.90;;;;;;6100360;23;19925;-81
2021/12/13 08:54:32;;;;;;;;;;;3.40;99.90;;;;;;6132112;23;21300;-81
2021/12/13 08:57:00;;;;;;;;;;;3.40;99.90;;;;;;6097976;23;19936;-82
2021/12/13 08:59:28;;;;;;;;;;;3.50;99.90;;;;;;6127561;23;19928;-82
2021/12/13 09:02:04;;;;;;;;;;;3.50;99.90;;;;;;6133876;23;20341;-82
2021/12/13 09:04:38;;;;;;;;;;;3.60;99.90;;;;;;6122849;23;19925;-86
2021/12/13 09:07:09;;;;;;;;;;;3.60;99.90;;;;;;6128286;23;19920;-86
2021/12/13 09:09:43;;;;;;;;;;;3.70;99.90;;;;;;6133880;23;19924;-85
2021/12/13 09:12:14;;;;;;;;;;;3.70;99.90;;;;;;6121958;23;19932;-86
2021/12/13 09:14:50;;;;;;;;;;;3.80;99.90;;;;;;6105191;23;20250;-86
2021/12/13 09:17:25;;;;;;;;;;;3.80;99.90;;;;;;6133722;23;19925;-86
2021/12/13 09:19:58;;;;;;;;;;;3.80;99.90;;;;;;6125628;23;19925;-85
2021/12/13 09:22:38;;;;;;;;;;;3.80;99.90;;;;;;6097182;23;20396;-85
2021/12/13 09:25:12;;;;;;;;;;;3.80;99.90;;;;;;6098173;23;19925;-85
2021/12/13 09:27:52;;;;;;;;;;;3.90;99.90;;;;;;6125793;23;19921;-86
2021/12/13 09:30:35;;;;;;;;;;;4.00;99.90;;;;;;6131687;23;19929;-86
2021/12/13 09:33:07;;;;;;;;;;;4.10;99.90;;;;;;6108017;23;20339;-86
2021/12/13 09:35:58;;;;;;;;;;;4.10;99.90;;;;;;6073113;23;19921;-86
2021/12/13 09:38:31;;;;;;;;;;;4.20;99.90;;;;;;6083360;23;19921;-85
2021/12/13 09:41:15;;;;;;;;;;;4.30;99.90;;;;;;6098322;23;20321;-86
2021/12/13 09:43:54;;;;;;;;;;;4.30;99.90;;;;;;6073619;23;20341;-86
2021/12/13 09:46:27;;;;;;;;;;;4.40;99.90;;;;;;6129893;23;20276;-86
2021/12/13 09:48:56;;;;;;;;;;;4.50;99.90;;;;;;6073773;23;19928;-86
2021/12/13 09:51:27;;;;;;;;;;;4.50;99.90;;;;;;6073534;23;19925;-86
2021/12/13 09:53:57;;;;;;;;;;;4.60;99.90;;;;;;6108105;23;20230;-85
2021/12/13 09:56:32;;;;;;;;;;;4.70;99.90;;;;;;6073479;23;19928;-87
2021/12/13 09:59:05;;;;;;;;;;;4.80;99.90;;;;;;6128101;23;19921;-86
2021/12/13 10:01:34;;;;;;;;;;;4.80;99.90;;;;;;6097724;23;19925;-87
2021/12/13 10:04:06;;;;;;;;;;;4.80;99.90;;;;;;6098795;23;19928;-86
2021/12/13 10:06:36;;;;;;;;;;;4.90;99.90;;;;;;6073625;23;19921;-86
2021/12/13 10:09:09;;;;;;;;;;;4.90;99.90;;;;;;6073977;23;19928;-85
2021/12/13 10:11:43;;;;;;;;;;;5.10;99.90;;;;;;6097300;23;19921;-85
2021/12/13 10:14:13;;;;;;;;;;;5.10;99.90;;;;;;6072669;23;20745;-85
2021/12/13 10:16:43;;;;;;;;;;;5.20;99.90;;;;;;6106159;23;19928;-86
2021/12/13 10:19:16;;;;;;;;;;;5.30;99.90;;;;;;6095447;23;19924;-85
2021/12/13 10:21:46;;;;;;;;;;;5.30;99.90;;;;;;6133769;23;19921;-86
2021/12/13 10:24:22;;;;;;;;;;;5.20;99.90;;;;;;6098661;23;20245;-84
2021/12/13 10:26:52;;;;;;;;;;;5.10;99.90;;;;;;6129265;23;20650;-85
2021/12/13 10:29:38;;;;;;;;;;;4.90;99.90;;;;;;6133955;23;19932;-84
2021/12/13 10:32:11;;;;;;;;;;;4.90;99.90;;;;;;6125834;23;19932;-84
2021/12/13 10:34:41;;;;;;;;;;;4.70;99.90;;;;;;6131717;23;19940;-83
2021/12/13 10:37:17;;;;;;;;;;;4.70;99.90;;;;;;6109661;23;20357;-83
2021/12/13 10:39:49;;;;;;;;;;;4.60;99.90;;;;;;6127780;23;19934;-84
2021/12/13 10:42:20;;;;;;;;;;;4.70;99.90;;;;;;6132978;23;19925;-84
2021/12/13 10:44:48;;;;;;;;;;;4.80;99.90;;;;;;6135604;23;19921;-84
2021/12/13 10:47:29;;;;;;;;;;;4.90;99.90;;;;;;6129292;23;19925;-83
2021/12/13 10:49:59;;;;;;;;;;;5.00;99.90;;;;;;6075443;23;19932;-83
2021/12/13 10:52:31;;;;;;;;;;;5.00;99.90;;;;;;6098856;23;19921;-84
2021/12/13 10:55:00;;;;;;;;;;;5.00;99.90;;;;;;6129716;23;20325;-85
2021/12/13 10:57:33;;;;;;;;;;;5.10;99.90;;;;;;6134328;23;19920;-84
2021/12/13 11:00:01;;;;;;;;;;;5.00;99.90;;;;;;6126163;23;20245;-83
2021/12/13 11:02:33;;;;;;;;;;;5.00;99.90;;;;;;6129397;23;19925;-84
2021/12/13 11:05:07;;;;;;;;;;;5.10;99.90;;;;;;6134568;23;19921;-83
2021/12/13 11:07:35;;;;;;;;;;;5.10;99.90;;;;;;6077381;23;19929;-81
2021/12/13 11:10:04;;;;;;;;;;;5.10;99.90;;;;;;6097586;23;20249;-83
2021/12/13 11:12:36;;;;;;;;;;;5.20;99.90;;;;;;6131650;23;19944;-84
2021/12/13 11:15:07;;;;;;;;;;;5.30;99.90;;;;;;6129912;23;19925;-84
2021/12/13 11:17:35;;;;;;;;;;;5.50;99.90;;;;;;6099262;23;20344;-84
2021/12/13 11:20:09;;;;;;;;;;;5.60;99.90;;;;;;6050633;23;19920;-84
2021/12/13 11:22:37;;;;;;;;;;;5.60;99.90;;;;;;6130569;23;20328;-85
2021/12/13 11:25:14;;;;;;;;;;;5.50;99.90;;;;;;6099464;23;19924;-85
2021/12/13 11:27:42;;;;;;;;;;;5.40;99.90;;;;;;6126058;23;19920;-85
2021/12/13 11:30:12;;;;;;;;;;;5.30;99.90;;;;;;6107140;23;19924;-84
2021/12/13 11:32:46;;;;;;;;;;;5.30;99.90;;;;;;6084904;23;19925;-84
2021/12/13 11:35:32;;;;;;;;;;;5.30;99.90;;;;;;6127605;23;19924;-87
2021/12/13 11:38:03;;;;;;;;;;;5.40;99.90;;;;;;6134685;23;19921;-85
2021/12/13 11:40:40;;;;;;;;;;;5.30;99.90;;;;;;6123551;23;20325;-84
2021/12/13 11:43:27;;;;;;;;;;;5.40;99.90;;;;;;6128894;23;19928;-85
2021/12/13 11:46:03;;;;;;;;;;;5.40;99.90;;;;;;6109424;23;19925;-84
2021/12/13 11:48:54;;;;;;;;;;;5.40;99.90;;;;;;6123205;23;19920;-85
2021/12/13 11:51:28;;;;;;;;;;;5.20;99.90;;;;;;6127244;23;20233;-82
2021/12/13 11:54:11;;;;;;;;;;;5.30;99.90;;;;;;6132166;23;19928;-87
2021/12/13 11:57:07;;;;;;;;;;;5.40;99.90;;;;;;6108123;23;20399;-86
2021/12/13 12:00:01;;;;;;;;;;;5.40;99.90;;;;;;6074137;23;19921;-86
2021/12/13 12:02:51;;;;;;;;;;;5.40;99.90;;;;;;6131666;23;19925;-83
2021/12/13 12:05:36;;;;;;;;;;;5.40;99.90;;;;;;6108581;23;19921;-85
2021/12/13 12:08:07;;;;;;;;;;;5.30;99.90;;;;;;6123265;23;19928;-87
2021/12/13 12:10:52;;;;;;;;;;;5.30;99.90;;;;;;6123396;23;19948;-88
2021/12/13 12:13:50;;;;;;;;;;;5.30;99.90;;;;;;6097747;23;19925;-87
2021/12/13 12:19:22;;;;;;;;;;;5.10;99.90;;;;;;6082515;23;19921;-85
2021/12/13 12:21:58;;;;;;;;;;;5.20;99.90;;;;;;6110258;23;19928;-84
2021/12/13 12:24:27;;;;;;;;;;;5.20;99.90;;;;;;6125058;23;20222;-82
2021/12/13 12:26:57;;;;;;;;;;;5.20;99.90;;;;;;6075371;23;19921;-82
2021/12/13 12:29:31;;;;;;;;;;;5.20;99.90;;;;;;6109944;23;19921;-83
2021/12/13 12:32:09;;;;;;;;;;;5.20;99.90;;;;;;6100535;23;19932;-83
2021/12/13 12:34:45;;;;;;;;;;;5.20;99.90;;;;;;6131059;23;19921;-82
2021/12/13 12:37:30;;;;;;;;;;;5.30;99.90;;;;;;6133997;23;19931;-82
2021/12/13 12:40:09;;;;;;;;;;;5.20;99.90;;;;;;6126606;23;19932;-85
2021/12/13 12:42:49;;;;;;;;;;;5.20;99.90;;;;;;6095748;23;19925;-89
2021/12/13 12:48:24;;;;;;;;;;;5.20;99.90;;;;;;6081814;23;19932;-87
2021/12/13 12:50:59;;;;;;;;;;;5.20;99.90;;;;;;6129235;23;19925;-87
2021/12/13 12:53:59;;;;;;;;;;;5.20;99.90;;;;;;6135049;23;19925;-87
2021/12/13 12:56:27;;;;;;;;;;;5.10;99.90;;;;;;6090278;23;20578;-88
2021/12/13 12:59:18;;;;;;;;;;;5.40;99.90;;;;;;6068900;23;19921;-86
2021/12/13 13:02:08;;;;;;;;;;;5.40;99.90;;;;;;6104605;23;19921;-85
2021/12/13 13:04:38;;;;;;;;;;;5.20;99.90;;;;;;6049268;23;20329;-84
2021/12/13 13:07:25;;;;;;;;;;;5.10;99.90;;;;;;6098284;23;19921;-85
2021/12/13 13:09:54;;;;;;;;;;;5.10;99.90;;;;;;6044849;23;19947;-85
2021/12/13 13:12:22;;;;;;;;;;;5.20;99.90;;;;;;6093040;23;19932;-84
2021/12/13 13:14:53;;;;;;;;;;;5.20;99.90;;;;;;6074404;23;19921;-83
2021/12/13 13:17:26;;;;;;;;;;;5.20;99.90;;;;;;6101169;23;19932;-85
2021/12/13 13:19:56;;;;;;;;;;;5.20;99.90;;;;;;6095631;23;19925;-85
2021/12/13 13:22:33;;;;;;;;;;;5.20;99.90;;;;;;6098564;23;19932;-85
2021/12/13 13:25:23;;;;;;;;;;;5.20;99.90;;;;;;6101441;23;20244;-88
2021/12/13 13:27:51;;;;;;;;;;;5.10;99.90;;;;;;6070568;23;20249;-86
2021/12/13 13:30:26;;;;;;;;;;;5.00;99.90;;;;;;6102263;23;19921;-86
2021/12/13 13:32:54;;;;;;;;;;;5.00;99.90;;;;;;6104201;23;20367;-86
2021/12/13 13:35:21;;;;;;;;;;;4.80;99.90;;;;;;6073207;23;19921;-87
2021/12/13 13:38:05;;;;;;;;;;;4.80;99.90;;;;;;6101460;23;19929;-87
2021/12/13 13:40:34;;;;;;;;;;;4.70;99.90;;;;;;6094684;23;19928;-87
2021/12/13 13:43:04;;;;;;;;;;;4.70;99.90;;;;;;6067719;23;19928;-86
2021/12/13 13:45:36;;;;;;;;;;;4.70;99.90;;;;;;6103197;23;19925;-87
2021/12/13 13:48:06;;;;;;;;;;;4.70;99.90;;;;;;6095755;23;19929;-86
2021/12/13 13:50:39;;;;;;;;;;;4.70;99.90;;;;;;6100659;23;19936;-87
2021/12/13 13:53:19;;;;;;;;;;;4.70;99.90;;;;;;6045393;23;20356;-82
2021/12/13 13:56:00;;;;;;;;;;;4.60;99.90;;;;;;6067265;23;19937;-88
2021/12/13 13:58:33;;;;;;;;;;;4.60;99.90;;;;;;6072767;23;19921;-88
2021/12/13 14:01:06;;;;;;;;;;;4.60;99.90;;;;;;6047164;23;19928;-86
2021/12/13 14:03:39;;;;;;;;;;;4.60;99.90;;;;;;6067940;23;19922;-85
2021/12/13 14:06:08;;;;;;;;;;;4.70;99.90;;;;;;6039174;23;19922;-87
2021/12/13 14:08:37;;;;;;;;;;;4.70;99.90;;;;;;6073776;23;19928;-86
2021/12/13 14:11:09;;;;;;;;;;;4.80;99.90;;;;;;6067367;23;19925;-84
2021/12/13 14:13:38;;;;;;;;;;;4.80;99.90;;;;;;6039094;23;20603;-87
2021/12/13 14:16:14;;;;;;;;;;;4.70;99.90;;;;;;6041201;23;19922;-81
2021/12/13 14:18:41;;;;;;;;;;;4.70;99.90;;;;;;6072198;23;19933;-84
2021/12/13 14:21:13;;;;;;;;;;;4.70;99.90;;;;;;6040880;23;20389;-86
2021/12/13 14:23:51;;;;;;;;;;;4.70;99.90;;;;;;6067049;23;19922;-84
2021/12/13 14:26:29;;;;;;;;;;;4.70;99.90;;;;;;6073218;23;19932;-84
2021/12/13 14:28:57;;;;;;;;;;;4.70;99.90;;;;;;6074325;23;19932;-83
2021/12/13 14:31:28;;;;;;;;;;;4.70;99.90;;;;;;6068801;23;19921;-87
2021/12/13 14:33:58;;;;;;;;;;;4.60;99.90;;;;;;6073661;23;19928;-85
2021/12/13 14:36:31;;;;;;;;;;;4.60;99.90;;;;;;6084403;23;19926;-84
2021/12/13 14:39:18;;;;;;;;;;;4.60;99.90;;;;;;6068824;23;19926;-82
2021/12/13 14:41:47;;;;;;;;;;;4.60;99.90;;;;;;6075082;23;19921;-87
2021/12/13 14:44:17;;;;;;;;;;;4.60;99.90;;;;;;6065027;23;19926;-85
2021/12/13 14:46:52;;;;;;;;;;;4.60;99.90;;;;;;6046402;23;19925;-83
2021/12/13 14:49:23;;;;;;;;;;;4.60;99.90;;;;;;6097655;23;19922;-85
2021/12/13 14:52:00;;;;;;;;;;;4.50;99.90;;;;;;6037763;23;19932;-88
2021/12/13 14:54:35;;;;;;;;;;;4.40;99.90;;;;;;6068032;23;19970;-86
2021/12/13 14:57:26;;;;;;;;;;;4.40;99.90;;;;;;6062685;23;19932;-84
2021/12/13 15:00:14;;;;;;;;;;;4.30;99.90;;;;;;6007220;23;20288;-84
2021/12/13 15:02:45;;;;;;;;;;;4.30;99.90;;;;;;6051363;23;19930;-83
2021/12/13 15:05:18;;;;;;;;;;;4.30;99.90;;;;;;6076803;23;19926;-82
2021/12/13 15:07:49;;;;;;;;;;;4.20;99.90;;;;;;6040312;23;19933;-83
2021/12/13 15:10:19;;;;;;;;;;;4.10;99.90;;;;;;6041145;23;19921;-84
2021/12/13 15:12:48;;;;;;;;;;;4.00;99.90;;;;;;6078248;23;19926;-83
2021/12/13 15:15:20;;;;;;;;;;;4.00;99.90;;;;;;6071651;23;20333;-84
2021/12/13 15:17:50;;;;;;;;;;;4.00;99.90;;;;;;6086874;23;20330;-84
2021/12/13 15:20:20;;;;;;;;;;;4.00;99.90;;;;;;6066709;23;19932;-85
2021/12/13 15:22:49;;;;;;;;;;;3.90;99.90;;;;;;6065577;23;20233;-84
2021/12/13 15:25:19;;;;;;;;;;;3.90;99.90;;;;;;6075726;23;19922;-84
2021/12/13 15:27:49;;;;;;;;;;;3.80;99.90;;;;;;6090527;23;19921;-84
2021/12/13 15:30:19;;;;;;;;;;;3.80;99.90;;;;;;6067263;23;19928;-86
2021/12/13 15:32:55;;;;;;;;;;;3.80;99.90;;;;;;6077762;23;20325;-85
2021/12/13 15:35:28;;;;;;;;;;;3.80;99.90;;;;;;6067744;23;19922;-85
2021/12/13 15:37:59;;;;;;;;;;;3.90;99.90;;;;;;6077868;23;19921;-84
2021/12/13 15:40:30;;;;;;;;;;;3.90;99.90;;;;;;6066991;23;19925;-83
2021/12/13 15:43:10;;;;;;;;;;;3.90;99.90;;;;;;6070048;23;19933;-84
2021/12/13 15:45:49;;;;;;;;;;;3.90;99.90;;;;;;6076023;23;19922;-85
2021/12/13 15:51:23;;;;;;;;;;;3.90;99.90;;;;;;6070948;23;19928;-85
2021/12/13 15:53:53;;;;;;;;;;;3.90;99.90;;;;;;6040442;23;19929;-86
2021/12/13 15:56:23;;;;;;;;;;;3.90;99.90;;;;;;6039446;23;20361;-83
2021/12/13 15:58:53;;;;;;;;;;;3.80;99.90;;;;;;6043620;23;20245;-82
2021/12/13 16:01:31;;;;;;;;;;;3.80;99.90;;;;;;6104924;23;19921;-82
2021/12/13 16:04:04;;;;;;;;;;;3.90;99.90;;;;;;6071074;23;19970;-81
2021/12/13 16:06:34;;;;;;;;;;;3.90;99.90;;;;;;6077483;23;19925;-81
2021/12/13 16:09:10;;;;;;;;;;;4.00;99.90;;;;;;6105132;23;19925;-81
2021/12/13 16:11:40;;;;;;;;;;;4.00;99.90;;;;;;6096940;23;19929;-82
2021/12/13 16:14:17;;;;;;;;;;;4.10;99.90;;;;;;6103149;23;19921;-82
2021/12/13 16:16:58;;;;;;;;;;;4.00;99.90;;;;;;6105171;23;19926;-81
2021/12/13 16:19:33;;;;;;;;;;;4.10;99.90;;;;;;6098869;23;19921;-89
2021/12/13 16:22:02;;;;;;;;;;;4.10;99.90;;;;;;6102480;23;19921;-86
2021/12/13 16:24:30;;;;;;;;;;;4.10;99.90;;;;;;6079744;23;19930;-82
2021/12/13 16:26:58;;;;;;;;;;;4.10;99.90;;;;;;6099255;23;20333;-81
2021/12/13 16:29:26;;;;;;;;;;;4.10;99.90;;;;;;6079790;23;20329;-81
2021/12/13 16:31:53;;;;;;;;;;;4.10;99.90;;;;;;6071125;23;19945;-81
2021/12/13 16:34:21;;;;;;;;;;;4.00;99.90;;;;;;6102989;23;19925;-81
2021/12/13 16:36:51;;;;;;;;;;;3.90;99.90;;;;;;6105061;23;19921;-81
2021/12/13 16:39:21;;;;;;;;;;;3.80;99.90;;;;;;6098263;23;19925;-81
2021/12/13 16:41:51;;;;;;;;;;;3.80;99.90;;;;;;6104160;23;19937;-81
2021/12/13 16:44:27;;;;;;;;;;;3.70;99.90;;;;;;6094425;23;19925;-81
2021/12/13 16:46:56;;;;;;;;;;;3.70;99.90;;;;;;6100671;23;19936;-82
2021/12/13 16:49:26;;;;;;;;;;;3.80;99.90;;;;;;6105010;23;20246;-84
2021/12/13 16:51:59;;;;;;;;;;;3.90;99.90;;;;;;6096085;23;19929;-83
2021/12/13 16:54:28;;;;;;;;;;;3.80;99.90;;;;;;6067259;23;19932;-83
2021/12/13 16:56:59;;;;;;;;;;;3.60;99.90;;;;;;6102081;23;19944;-83
2021/12/13 16:59:26;;;;;;;;;;;3.60;99.90;;;;;;6072828;23;19921;-83
2021/12/13 17:01:57;;;;;;;;;;;3.70;99.90;;;;;;6104365;23;19930;-84
2021/12/13 17:04:33;;;;;;;;;;;3.70;99.90;;;;;;6093674;23;19948;-84
2021/12/13 17:07:07;;;;;;;;;;;3.80;99.90;;;;;;6096175;23;19921;-86
2021/12/13 17:09:53;;;;;;;;;;;3.80;99.90;;;;;;6069417;23;20277;-88
2021/12/13 17:12:30;;;;;;;;;;;3.80;99.90;;;;;;6093799;23;19944;-86
2021/12/13 17:15:03;;;;;;;;;;;3.70;99.90;;;;;;6076824;23;19929;-85
2021/12/13 17:17:34;;;;;;;;;;;3.70;99.90;;;;;;6106621;23;19922;-86
2021/12/13 17:20:03;;;;;;;;;;;3.70;99.90;;;;;;6094160;23;19921;-86
2021/12/13 17:22:34;;;;;;;;;;;3.70;99.90;;;;;;6045565;23;19921;-86
2021/12/13 17:25:05;;;;;;;;;;;3.60;99.90;;;;;;6074918;23;19931;-85
2021/12/13 17:27:34;;;;;;;;;;;3.40;99.90;;;;;;6071237;23;19928;-85
2021/12/13 17:30:07;;;;;;;;;;;3.40;99.90;;;;;;6103704;23;19921;-85